createdAt,value
2022-10-11T00:03:48.820Z,76.01
2022-10-11T00:08:50.692Z,76.28
2022-10-11T00:13:52.328Z,76.13
2022-10-11T00:18:54.011Z,75.97
2022-10-11T00:23:55.773Z,75.80
2022-10-11T00:28:57.478Z,75.90
2022-10-11T00:33:59.849Z,75.79
2022-10-11T00:39:02.009Z,75.60
2022-10-11T00:44:22.824Z,75.60
2022-10-11T00:49:39.607Z,75.68
2022-10-11T00:54:45.709Z,75.50
2022-10-11T00:59:54.058Z,75.77
2022-10-11T01:05:17.835Z,75.71
2022-10-11T01:10:17.573Z,75.67
2022-10-11T01:15:38.219Z,75.74
2022-10-11T01:20:39.792Z,75.74
2022-10-11T01:25:56.926Z,75.84
2022-10-11T01:31:08.549Z,75.88
2022-10-11T01:36:45.757Z,75.68
2022-10-11T01:41:52.563Z,75.69
2022-10-11T01:46:54.584Z,75.77
2022-10-11T01:52:03.464Z,76.07
2022-10-11T01:57:23.150Z,75.91
2022-10-11T02:02:24.783Z,76.12
2022-10-11T02:07:49.444Z,76.11
2022-10-11T02:13:03.497Z,76.16
2022-10-11T02:18:13.267Z,76.26
2022-10-11T02:23:20.669Z,76.38
2022-10-11T02:28:28.983Z,76.41
2022-10-11T02:33:40.204Z,76.49
2022-10-11T02:38:50.649Z,76.73
2022-10-11T02:44:03.365Z,76.81
2022-10-11T02:49:07.436Z,76.99
2022-10-11T02:54:09.258Z,77.17
2022-10-11T02:59:11.037Z,77.19
2022-10-11T03:04:12.725Z,77.51
2022-10-11T03:09:14.408Z,77.53
2022-10-11T03:14:16.071Z,77.64
2022-10-11T03:19:19.419Z,77.82
2022-10-11T03:24:21.371Z,78.04
2022-10-11T03:29:23.080Z,78.10
2022-10-11T03:34:24.960Z,78.02
2022-10-11T03:39:26.672Z,78.39
2022-10-11T03:44:28.401Z,78.64
2022-10-11T03:49:30.219Z,78.60
2022-10-11T03:54:31.894Z,78.73
2022-10-11T03:59:33.546Z,78.64
2022-10-11T04:04:35.250Z,78.94
2022-10-11T04:09:37.040Z,79.05
2022-10-11T04:14:38.716Z,79.36
2022-10-11T04:19:40.426Z,80.13
2022-10-11T04:24:42.227Z,80.84
2022-10-11T04:29:43.892Z,81.68
2022-10-11T04:34:45.655Z,82.23
2022-10-11T04:39:47.419Z,83.06
2022-10-11T04:44:49.182Z,83.84
2022-10-11T04:49:50.871Z,84.80
2022-10-11T04:54:52.756Z,85.41
2022-10-11T04:59:54.417Z,86.05
2022-10-11T05:04:56.326Z,86.38
2022-10-11T05:09:58.181Z,86.95
2022-10-11T05:14:59.945Z,87.11
2022-10-11T05:20:01.694Z,87.81
2022-10-11T05:25:03.629Z,87.67
2022-10-11T05:30:05.863Z,87.90
2022-10-11T05:35:08.072Z,88.10
2022-10-11T05:40:11.114Z,88.24
2022-10-11T05:45:12.808Z,88.34
2022-10-11T05:50:14.527Z,88.41
2022-10-11T05:55:16.257Z,88.44
2022-10-11T06:00:18.012Z,88.43
2022-10-11T06:05:19.738Z,88.54
2022-10-11T06:10:21.417Z,88.42
2022-10-11T06:15:23.418Z,88.47
2022-10-11T06:20:27.044Z,88.56
2022-10-11T06:25:28.898Z,88.68
2022-10-11T06:30:30.623Z,88.71
2022-10-11T06:35:32.306Z,88.87
2022-10-11T06:40:34.061Z,89.10
2022-10-11T06:45:35.781Z,89.07
2022-10-11T06:50:58.504Z,89.06
2022-10-11T06:56:09.944Z,89.08
2022-10-11T07:01:16.688Z,88.88
2022-10-11T07:06:21.794Z,89.06
2022-10-11T07:11:26.968Z,89.17
2022-10-11T07:16:29.038Z,88.90
2022-10-11T07:21:31.940Z,88.81
2022-10-11T07:26:38.915Z,88.65
2022-10-11T07:31:42.603Z,88.32
2022-10-11T07:36:44.300Z,87.98
2022-10-11T07:41:46.233Z,87.59
2022-10-11T07:46:48.045Z,87.33
2022-10-11T07:51:50.159Z,87.28
2022-10-11T07:56:51.811Z,87.17
2022-10-11T08:01:53.481Z,87.20
2022-10-11T08:06:55.184Z,87.11
2022-10-11T08:11:56.911Z,86.96
2022-10-11T08:16:58.948Z,86.99
2022-10-11T08:22:00.709Z,87.02
2022-10-11T08:27:02.437Z,87.10
2022-10-11T08:32:04.269Z,87.24
2022-10-11T08:37:06.191Z,87.31
2022-10-11T08:42:22.366Z,87.31
2022-10-11T08:47:32.887Z,87.26
2022-10-11T08:52:37.670Z,87.44
2022-10-11T08:57:40.904Z,87.70
2022-10-11T09:03:07.392Z,87.69
2022-10-11T09:08:48.001Z,87.64
2022-10-11T09:14:00.921Z,87.29
2022-10-11T09:19:30.420Z,87.12
2022-10-11T09:25:12.121Z,86.95
2022-10-11T09:30:17.676Z,87.00
2022-10-11T09:35:21.826Z,87.03
2022-10-11T09:40:45.077Z,86.75
2022-10-11T09:45:49.432Z,86.61
2022-10-11T09:50:54.637Z,86.67
2022-10-11T09:56:04.024Z,86.65
2022-10-11T10:01:11.643Z,86.55
2022-10-11T10:06:24.853Z,86.46
2022-10-11T10:11:36.922Z,86.07
2022-10-11T10:16:38.649Z,85.87
2022-10-11T10:21:46.772Z,85.74
2022-10-11T10:27:20.997Z,85.44
2022-10-11T10:32:28.256Z,84.99
2022-10-11T10:37:36.368Z,84.81
2022-10-11T10:42:38.097Z,84.39
2022-10-11T10:47:58.210Z,84.21
2022-10-11T10:53:23.989Z,83.80
2022-10-11T10:58:52.462Z,83.78
2022-10-11T11:04:08.061Z,83.54
2022-10-11T11:09:19.184Z,82.09
2022-10-11T11:15:02.519Z,81.48
2022-10-11T11:20:24.823Z,81.32
2022-10-11T11:25:35.444Z,79.98
2022-10-11T11:30:45.972Z,79.42
2022-10-11T11:35:52.838Z,79.08
2022-10-11T11:40:58.845Z,78.79
2022-10-11T11:46:09.611Z,78.32
2022-10-11T11:51:29.005Z,78.00
2022-10-11T11:57:05.257Z,77.41
2022-10-11T12:02:28.083Z,76.61
2022-10-11T12:07:30.189Z,74.93
2022-10-11T12:12:38.069Z,73.74
2022-10-11T12:17:56.040Z,72.72
2022-10-11T12:23:03.514Z,72.39
2022-10-11T12:28:43.156Z,71.74
2022-10-11T12:33:45.246Z,71.31
2022-10-11T12:38:46.971Z,70.59
2022-10-11T12:43:48.636Z,69.78
2022-10-11T12:49:05.562Z,69.62
2022-10-11T12:54:36.875Z,69.58
2022-10-11T12:59:44.676Z,69.79
2022-10-11T13:04:46.425Z,69.38
2022-10-11T13:09:49.184Z,68.89
2022-10-11T13:15:04.009Z,68.19
2022-10-11T13:20:23.866Z,67.17
2022-10-11T13:25:27.112Z,66.12
2022-10-11T13:30:32.520Z,64.38
2022-10-11T13:35:36.569Z,64.71
2022-10-11T13:40:38.711Z,65.63
2022-10-11T13:45:41.435Z,65.38
2022-10-11T13:50:51.109Z,65.66
2022-10-11T13:55:56.066Z,65.59
2022-10-11T14:00:57.723Z,65.28
2022-10-11T14:06:00.555Z,65.39
2022-10-11T14:11:06.293Z,65.05
2022-10-11T14:16:27.666Z,65.27
2022-10-11T14:22:00.248Z,65.41
2022-10-11T14:27:05.491Z,65.82
2022-10-11T14:32:11.065Z,66.28
2022-10-11T14:37:15.172Z,66.26
2022-10-11T14:42:17.601Z,66.58
2022-10-11T14:47:19.514Z,66.78
2022-10-11T14:52:21.166Z,67.08
2022-10-11T14:57:22.816Z,67.20
2022-10-11T15:02:24.471Z,67.15
2022-10-11T15:07:26.151Z,67.31
2022-10-11T15:12:27.793Z,67.32
2022-10-11T15:17:29.507Z,67.53
2022-10-11T15:22:31.207Z,67.96
2022-10-11T15:27:32.865Z,68.33
2022-10-11T15:32:34.541Z,68.83
2022-10-11T15:37:37.423Z,69.00
2022-10-11T15:42:39.493Z,69.19
2022-10-11T15:47:41.387Z,69.35
2022-10-11T15:52:43.070Z,69.71
2022-10-11T15:57:44.773Z,69.86
2022-10-11T16:02:46.500Z,69.77
2022-10-11T16:07:48.595Z,69.93
2022-10-11T16:12:50.376Z,70.28
2022-10-11T16:17:52.115Z,70.70
2022-10-11T16:22:54.749Z,71.15
2022-10-11T16:27:56.455Z,71.83
2022-10-11T16:32:58.663Z,72.19
2022-10-11T16:38:01.417Z,72.60
2022-10-11T16:43:07.411Z,72.67
2022-10-11T16:48:09.775Z,73.01
2022-10-11T16:53:11.503Z,73.33
2022-10-11T16:58:13.277Z,73.73
2022-10-11T17:03:15.044Z,74.13
2022-10-11T17:08:16.919Z,74.30
2022-10-11T17:13:18.661Z,74.56
2022-10-11T17:18:20.332Z,74.81
2022-10-11T17:23:21.965Z,75.17
2022-10-11T17:28:23.937Z,75.51
2022-10-11T17:33:27.332Z,75.75
2022-10-11T17:38:29.058Z,76.13
2022-10-11T17:43:31.925Z,76.34
2022-10-11T17:48:36.734Z,76.65
2022-10-11T17:53:38.932Z,76.92
2022-10-11T17:58:40.684Z,77.26
2022-10-11T18:03:43.448Z,77.46
2022-10-11T18:08:45.123Z,77.87
2022-10-11T18:13:51.847Z,78.23
2022-10-11T18:18:54.870Z,78.63
2022-10-11T18:23:59.780Z,78.74
2022-10-11T18:29:01.491Z,79.12
2022-10-11T18:34:05.096Z,79.38
2022-10-11T18:39:09.476Z,79.71
2022-10-11T18:44:14.183Z,79.99
2022-10-11T18:49:15.963Z,80.44
2022-10-11T18:54:21.132Z,80.75
2022-10-11T18:59:23.310Z,80.84
2022-10-11T19:04:25.097Z,81.39
2022-10-11T19:09:28.467Z,81.91
2022-10-11T19:14:30.461Z,82.39
2022-10-11T19:19:33.358Z,82.30
2022-10-11T19:24:35.187Z,82.35
2022-10-11T19:29:37.918Z,82.79
2022-10-11T19:34:39.621Z,82.74
2022-10-11T19:39:41.395Z,82.96
2022-10-11T19:44:43.080Z,83.29
2022-10-11T19:49:44.792Z,83.70
2022-10-11T19:54:46.516Z,84.09
2022-10-11T19:59:48.217Z,84.35
2022-10-11T20:04:52.810Z,84.53
2022-10-11T20:09:54.952Z,85.16
2022-10-11T20:14:56.625Z,85.27
2022-10-11T20:19:58.303Z,85.63
2022-10-11T20:25:00.108Z,85.55
2022-10-11T20:30:01.924Z,85.84
2022-10-11T20:35:03.895Z,86.19
2022-10-11T20:40:06.246Z,86.90
2022-10-11T20:45:08.282Z,86.97
2022-10-11T20:50:09.924Z,86.86
2022-10-11T20:55:11.608Z,86.67
2022-10-11T21:00:13.911Z,86.84
2022-10-11T21:05:15.635Z,87.39
2022-10-11T21:10:17.443Z,87.68
2022-10-11T21:15:19.152Z,87.47
2022-10-11T21:20:20.864Z,87.61
2022-10-11T21:25:22.627Z,87.67
2022-10-11T21:30:24.263Z,87.79
2022-10-11T21:35:30.362Z,88.27
2022-10-11T21:40:31.998Z,87.99
2022-10-11T21:45:37.339Z,88.28
2022-10-11T21:50:39.010Z,88.22
2022-10-11T21:55:40.750Z,88.59
2022-10-11T22:00:42.333Z,88.34
2022-10-11T22:05:47.455Z,88.40
2022-10-11T22:10:57.620Z,88.54
2022-10-11T22:16:03.687Z,88.65
2022-10-11T22:21:12.026Z,88.99
2022-10-11T22:26:20.325Z,89.14
2022-10-11T22:31:22.371Z,89.09
2022-10-11T22:36:25.077Z,89.19
2022-10-11T22:41:26.828Z,89.38
2022-10-11T22:46:28.721Z,89.33
2022-10-11T22:51:30.490Z,89.37
2022-10-11T22:56:32.195Z,89.43
2022-10-11T23:01:33.916Z,89.55
2022-10-11T23:06:35.595Z,89.77
2022-10-11T23:11:41.916Z,89.81
2022-10-11T23:16:46.814Z,89.92
2022-10-11T23:21:48.565Z,90.06
2022-10-11T23:26:50.251Z,90.08
2022-10-11T23:31:51.969Z,90.39
2022-10-11T23:36:53.625Z,90.51
2022-10-11T23:41:55.503Z,90.52
2022-10-11T23:46:57.292Z,90.47
2022-10-11T23:51:59.050Z,90.35
2022-10-11T23:57:00.770Z,90.65
